createdAt,value
2018-08-20T00:01:33.520Z,17.90
2018-08-20T00:04:02.984Z,18.00
2018-08-20T00:06:42.859Z,17.90
2018-08-20T00:09:11.206Z,17.90
2018-08-20T00:11:39.570Z,18.00
2018-08-20T00:14:07.918Z,18.30
2018-08-20T00:16:36.181Z,18.80
2018-08-20T00:19:04.478Z,19.20
2018-08-20T00:21:32.783Z,19.60
2018-08-20T00:24:01.088Z,19.80
2018-08-20T00:26:29.403Z,19.80
2018-08-20T00:28:57.643Z,19.80
2018-08-20T00:31:25.954Z,19.80
2018-08-20T00:33:54.210Z,19.70
2018-08-20T00:36:22.475Z,19.60
2018-08-20T00:38:50.777Z,19.60
2018-08-20T00:41:19.034Z,19.60
2018-08-20T00:43:47.296Z,19.60
2018-08-20T00:46:15.603Z,19.50
2018-08-20T00:48:43.876Z,19.40
2018-08-20T00:51:12.202Z,19.40
2018-08-20T00:53:40.933Z,19.40
2018-08-20T00:56:09.291Z,19.50
2018-08-20T00:58:37.565Z,19.50
2018-08-20T01:03:41.064Z,19.70
2018-08-20T01:06:09.388Z,19.80
2018-08-20T01:08:37.635Z,19.80
2018-08-20T01:11:06.335Z,19.80
2018-08-20T01:13:34.631Z,19.90
2018-08-20T01:16:02.944Z,19.90
2018-08-20T01:18:31.731Z,19.90
2018-08-20T01:21:00.091Z,19.90
2018-08-20T01:23:28.338Z,19.90
2018-08-20T01:25:56.656Z,19.90
2018-08-20T01:28:24.889Z,19.90
2018-08-20T01:30:53.187Z,19.80
2018-08-20T01:33:22.538Z,19.80
2018-08-20T01:35:50.965Z,19.80
2018-08-20T01:38:19.267Z,19.70
2018-08-20T01:40:47.525Z,19.70
2018-08-20T01:43:15.836Z,19.70
2018-08-20T01:45:44.193Z,19.70
2018-08-20T01:48:12.459Z,19.60
2018-08-20T01:50:40.727Z,19.50
2018-08-20T01:53:08.981Z,19.50
2018-08-20T01:55:37.307Z,19.50
2018-08-20T01:58:05.590Z,19.40
2018-08-20T02:00:33.963Z,19.40
2018-08-20T02:03:03.666Z,19.30
2018-08-20T02:05:32.074Z,19.30
2018-08-20T02:08:00.560Z,19.30
2018-08-20T02:10:28.992Z,19.30
2018-08-20T02:12:57.281Z,19.20
2018-08-20T02:15:25.839Z,19.20
2018-08-20T02:17:54.450Z,19.20
2018-08-20T02:20:22.741Z,19.20
2018-08-20T02:22:51.026Z,19.20
2018-08-20T02:25:19.362Z,19.20
2018-08-20T02:27:47.683Z,19.20
2018-08-20T02:30:16.008Z,19.20
2018-08-20T02:32:44.325Z,19.20
2018-08-20T02:35:12.584Z,19.10
2018-08-20T02:37:45.791Z,19.10
2018-08-20T02:40:14.878Z,19.20
2018-08-20T02:42:43.177Z,19.10
2018-08-20T02:45:13.353Z,19.00
2018-08-20T02:47:42.535Z,19.00
2018-08-20T02:50:11.647Z,18.90
2018-08-20T02:52:40.169Z,18.80
2018-08-20T02:55:08.831Z,18.70
2018-08-20T02:57:37.305Z,18.70
2018-08-20T03:00:08.425Z,18.70
2018-08-20T03:02:36.827Z,18.60
2018-08-20T03:05:05.301Z,18.60
2018-08-20T03:07:33.717Z,18.60
2018-08-20T03:10:01.977Z,18.60
2018-08-20T03:12:30.272Z,18.50
2018-08-20T03:14:58.540Z,18.50
2018-08-20T03:17:26.894Z,18.40
2018-08-20T03:19:55.171Z,18.40
2018-08-20T03:22:23.523Z,18.40
2018-08-20T03:24:51.853Z,18.30
2018-08-20T03:27:20.142Z,18.30
2018-08-20T03:29:48.388Z,18.30
2018-08-20T03:32:16.695Z,18.20
2018-08-20T03:34:44.970Z,18.20
2018-08-20T03:37:13.269Z,18.20
2018-08-20T03:39:41.677Z,18.10
2018-08-20T03:42:10.004Z,18.10
2018-08-20T03:44:38.280Z,18.10
2018-08-20T03:47:06.609Z,18.10
2018-08-20T03:49:34.924Z,18.10
2018-08-20T03:52:03.211Z,18.10
2018-08-20T03:54:31.492Z,18.10
2018-08-20T03:56:59.783Z,18.10
2018-08-20T03:59:33.859Z,18.10
2018-08-20T04:02:03.383Z,18.10
2018-08-20T04:04:31.872Z,18.10
2018-08-20T04:07:04.223Z,18.10
2018-08-20T04:09:32.903Z,18.20
2018-08-20T04:12:02.129Z,18.10
2018-08-20T04:14:30.417Z,18.20
2018-08-20T04:16:59.250Z,18.20
2018-08-20T04:19:27.903Z,18.30
2018-08-20T04:21:56.299Z,18.30
2018-08-20T04:24:24.667Z,18.40
2018-08-20T04:26:53.012Z,18.40
2018-08-20T04:29:21.690Z,18.50
2018-08-20T04:31:49.972Z,18.50
2018-08-20T04:34:18.287Z,18.60
2018-08-20T04:36:46.629Z,18.70
2018-08-20T04:39:14.919Z,18.80
2018-08-20T04:41:43.183Z,19.20
2018-08-20T04:44:11.486Z,20.00
2018-08-20T04:46:39.770Z,20.90
2018-08-20T04:49:08.048Z,21.60
2018-08-20T04:51:36.452Z,22.00
2018-08-20T04:54:04.652Z,22.50
2018-08-20T04:56:32.935Z,22.90
2018-08-20T04:59:01.252Z,23.30
2018-08-20T05:01:29.641Z,23.50
2018-08-20T05:03:57.994Z,23.70
2018-08-20T05:06:26.681Z,24.00
2018-08-20T05:08:55.000Z,24.30
2018-08-20T05:11:23.333Z,24.50
2018-08-20T05:13:53.654Z,24.50
2018-08-20T05:16:21.935Z,24.80
2018-08-20T05:18:50.259Z,24.90
2018-08-20T05:21:18.568Z,25.30
2018-08-20T05:23:46.906Z,25.00
2018-08-20T05:26:15.292Z,25.40
2018-08-20T05:28:43.684Z,25.30
2018-08-20T05:31:12.009Z,25.50
2018-08-20T05:33:40.380Z,25.70
2018-08-20T05:36:08.659Z,25.80
2018-08-20T05:38:36.942Z,25.70
2018-08-20T05:41:05.206Z,25.90
2018-08-20T05:43:33.526Z,26.10
2018-08-20T05:46:01.907Z,26.00
2018-08-20T05:48:30.286Z,25.80
2018-08-20T05:50:58.643Z,25.10
2018-08-20T05:53:27.935Z,24.60
2018-08-20T05:56:59.089Z,24.50
2018-08-20T05:59:27.390Z,24.30
2018-08-20T06:01:55.780Z,24.90
2018-08-20T06:04:24.144Z,24.90
2018-08-20T06:06:52.396Z,25.10
2018-08-20T06:09:20.745Z,25.20
2018-08-20T06:11:49.119Z,26.00
2018-08-20T06:14:17.473Z,26.70
2018-08-20T06:16:45.897Z,27.50
2018-08-20T06:19:14.216Z,27.80
2018-08-20T06:21:42.484Z,28.10
2018-08-20T06:24:10.842Z,27.10
2018-08-20T06:26:39.123Z,26.80
2018-08-20T06:29:07.449Z,26.80
2018-08-20T06:31:35.790Z,26.60
2018-08-20T06:34:04.094Z,26.30
2018-08-20T06:36:32.444Z,25.50
2018-08-20T06:39:00.741Z,25.30
2018-08-20T06:41:29.077Z,26.40
2018-08-20T06:43:57.383Z,26.60
2018-08-20T06:46:25.650Z,26.40
2018-08-20T06:48:54.078Z,27.10
2018-08-20T06:58:25.691Z,28.30
2018-08-20T07:00:54.121Z,29.00
2018-08-20T07:03:22.466Z,29.10
2018-08-20T07:05:50.788Z,29.60
2018-08-20T07:08:19.108Z,30.10
2018-08-20T07:10:48.368Z,30.00
2018-08-20T07:13:23.786Z,30.30
2018-08-20T07:15:52.089Z,30.00
2018-08-20T07:18:20.569Z,29.30
2018-08-20T07:20:48.833Z,28.50
2018-08-20T07:23:17.253Z,28.10
2018-08-20T07:25:45.748Z,27.80
2018-08-20T07:28:14.090Z,27.10
2018-08-20T07:30:42.383Z,26.40
2018-08-20T07:33:10.728Z,25.50
2018-08-20T07:35:39.018Z,25.40
2018-08-20T07:38:07.307Z,25.20
2018-08-20T07:40:35.599Z,24.90
2018-08-20T07:43:04.149Z,24.70
2018-08-20T07:45:32.441Z,24.40
2018-08-20T07:48:00.769Z,24.50
2018-08-20T07:50:29.128Z,24.80
2018-08-20T07:52:57.462Z,24.70
2018-08-20T07:55:25.759Z,25.10
2018-08-20T07:57:54.141Z,25.30
2018-08-20T08:00:22.636Z,25.80
2018-08-20T08:02:51.028Z,25.90
2018-08-20T08:05:19.403Z,25.60
2018-08-20T08:07:47.733Z,25.10
2018-08-20T08:10:16.846Z,25.10
2018-08-20T08:12:45.303Z,24.80
2018-08-20T08:15:14.842Z,25.00
2018-08-20T08:17:44.415Z,24.80
2018-08-20T08:20:13.948Z,24.60
2018-08-20T08:22:42.703Z,24.60
2018-08-20T08:25:11.339Z,24.50
2018-08-20T08:27:39.675Z,24.40
2018-08-20T08:30:11.916Z,24.60
2018-08-20T08:32:40.228Z,24.80
2018-08-20T08:35:09.172Z,24.70
2018-08-20T08:37:37.557Z,24.80
2018-08-20T08:40:05.953Z,24.70
2018-08-20T08:42:34.665Z,24.60
2018-08-20T08:45:03.312Z,24.50
2018-08-20T08:47:31.667Z,24.50
2018-08-20T08:50:00.156Z,24.30
2018-08-20T08:52:28.525Z,24.60
2018-08-20T08:54:56.857Z,24.30
2018-08-20T08:57:25.132Z,24.20
2018-08-20T08:59:53.487Z,24.40
2018-08-20T09:02:21.823Z,24.40
2018-08-20T09:04:50.931Z,24.30
2018-08-20T09:07:19.259Z,24.20
2018-08-20T09:09:48.658Z,24.10
2018-08-20T09:12:16.978Z,24.30
2018-08-20T09:14:45.246Z,24.40
2018-08-20T09:17:13.528Z,24.60
2018-08-20T09:19:41.837Z,24.70
2018-08-20T09:22:10.203Z,24.70
2018-08-20T09:24:38.496Z,24.80
2018-08-20T09:27:06.847Z,24.90
2018-08-20T09:29:35.151Z,24.60
2018-08-20T09:32:03.661Z,24.60
2018-08-20T09:34:32.025Z,25.00
2018-08-20T09:37:00.315Z,24.90
2018-08-20T09:39:28.968Z,24.60
2018-08-20T09:41:57.336Z,24.80
2018-08-20T09:44:25.613Z,24.80
2018-08-20T09:46:54.953Z,24.90
2018-08-20T09:49:23.325Z,24.70
2018-08-20T09:51:51.701Z,24.70
2018-08-20T09:54:20.028Z,24.60
2018-08-20T09:56:48.374Z,24.40
2018-08-20T09:59:16.715Z,24.50
2018-08-20T10:01:45.119Z,24.30
2018-08-20T10:04:13.377Z,24.40
2018-08-20T10:06:41.782Z,24.30
2018-08-20T10:09:10.107Z,24.30
2018-08-20T10:11:38.515Z,24.40
2018-08-20T10:14:06.815Z,24.20
2018-08-20T10:16:35.188Z,24.30
2018-08-20T10:19:03.526Z,24.20
2018-08-20T10:21:31.891Z,24.10
2018-08-20T10:24:00.208Z,24.20
2018-08-20T10:26:28.512Z,24.00
2018-08-20T10:28:56.835Z,24.00
2018-08-20T10:31:25.128Z,23.80
2018-08-20T10:40:56.411Z,23.90
2018-08-20T10:43:24.731Z,23.90
2018-08-20T10:45:58.603Z,23.80
2018-08-20T10:48:26.889Z,24.00
2018-08-20T10:50:55.140Z,24.30
2018-08-20T10:53:23.421Z,24.60
2018-08-20T10:55:51.745Z,24.80
2018-08-20T10:58:20.132Z,25.00
2018-08-20T11:00:48.505Z,24.90
2018-08-20T11:03:16.837Z,24.80
2018-08-20T11:05:45.191Z,24.90
2018-08-20T11:08:13.556Z,25.10
2018-08-20T11:10:41.951Z,25.70
2018-08-20T11:13:10.167Z,26.30
2018-08-20T11:15:38.555Z,26.60
2018-08-20T11:18:06.833Z,26.60
2018-08-20T11:20:35.226Z,26.50
2018-08-20T11:23:03.561Z,26.00
2018-08-20T11:25:31.889Z,25.90
2018-08-20T11:28:00.238Z,25.80
2018-08-20T11:30:28.697Z,25.50
2018-08-20T11:32:57.040Z,25.30
2018-08-20T11:35:25.378Z,25.20
2018-08-20T11:37:53.670Z,24.90
2018-08-20T11:40:21.905Z,24.80
2018-08-20T11:42:51.245Z,24.90
2018-08-20T11:45:19.519Z,24.90
2018-08-20T11:47:47.804Z,24.90
2018-08-20T11:50:16.130Z,24.90
2018-08-20T11:52:44.461Z,24.70
2018-08-20T11:55:13.740Z,24.70
2018-08-20T11:57:42.027Z,24.60
2018-08-20T12:00:11.830Z,24.60
2018-08-20T12:02:41.031Z,24.60
2018-08-20T12:05:10.119Z,24.60
2018-08-20T12:07:38.574Z,24.30
2018-08-20T12:10:08.066Z,24.00
2018-08-20T12:12:36.644Z,23.80
2018-08-20T12:15:06.210Z,23.60
2018-08-20T12:17:34.494Z,23.50
2018-08-20T12:20:02.822Z,23.60
2018-08-20T12:22:31.196Z,23.60
2018-08-20T12:24:59.529Z,23.60
2018-08-20T12:27:27.812Z,23.60
2018-08-20T12:29:56.115Z,23.40
2018-08-20T12:32:24.478Z,23.40
2018-08-20T12:34:52.776Z,23.40
2018-08-20T12:37:21.156Z,23.40
2018-08-20T12:39:49.576Z,23.50
2018-08-20T12:42:18.272Z,23.40
2018-08-20T12:44:46.682Z,23.30
2018-08-20T12:47:14.975Z,23.50
2018-08-20T12:49:43.390Z,23.90
2018-08-20T12:52:11.827Z,24.20
2018-08-20T12:54:40.162Z,24.40
2018-08-20T12:57:08.545Z,24.60
2018-08-20T12:59:36.829Z,24.70
2018-08-20T13:02:05.514Z,24.70
2018-08-20T13:04:33.823Z,24.80
2018-08-20T13:07:02.123Z,24.70
2018-08-20T13:09:30.444Z,24.60
2018-08-20T13:11:58.756Z,24.60
2018-08-20T13:14:27.125Z,24.40
2018-08-20T13:16:55.416Z,24.20
2018-08-20T13:19:23.747Z,24.10
2018-08-20T13:21:52.104Z,24.40
2018-08-20T13:24:20.433Z,24.70
2018-08-20T13:26:48.721Z,25.10
2018-08-20T13:29:16.984Z,25.50
2018-08-20T13:31:45.289Z,25.20
2018-08-20T13:34:13.622Z,25.30
2018-08-20T13:36:41.907Z,25.30
2018-08-20T13:39:10.171Z,25.30
2018-08-20T13:41:38.486Z,25.00
2018-08-20T13:44:06.912Z,25.20
2018-08-20T13:46:35.174Z,25.10
2018-08-20T13:49:03.476Z,25.10
2018-08-20T13:51:31.777Z,25.00
2018-08-20T13:54:00.084Z,24.90
2018-08-20T13:56:28.436Z,25.20
2018-08-20T13:58:57.765Z,24.90
2018-08-20T14:01:26.107Z,25.00
2018-08-20T14:03:54.598Z,25.40
2018-08-20T14:06:22.851Z,25.60
2018-08-20T14:08:51.154Z,25.80
2018-08-20T14:11:19.422Z,25.80
2018-08-20T14:13:47.707Z,25.80
2018-08-20T14:16:15.964Z,25.50
2018-08-20T14:18:44.264Z,25.20
2018-08-20T14:21:13.999Z,25.40
2018-08-20T14:23:43.450Z,25.30
2018-08-20T14:26:11.766Z,25.30
2018-08-20T14:28:40.076Z,25.50
2018-08-20T14:31:08.408Z,25.60
2018-08-20T14:33:36.703Z,25.80
2018-08-20T14:36:05.059Z,25.80
2018-08-20T14:38:33.847Z,25.60
2018-08-20T14:41:02.131Z,25.50
2018-08-20T14:43:30.393Z,25.20
2018-08-20T14:46:04.174Z,25.00
2018-08-20T14:48:32.517Z,25.00
2018-08-20T14:51:00.851Z,25.10
2018-08-20T14:53:29.230Z,24.90
2018-08-20T14:55:57.427Z,25.00
2018-08-20T14:58:25.720Z,25.00
2018-08-20T15:00:54.082Z,25.10
2018-08-20T15:03:22.386Z,24.90
2018-08-20T15:05:50.645Z,24.90
2018-08-20T15:08:18.988Z,24.80
2018-08-20T15:10:47.286Z,24.80
2018-08-20T15:13:15.584Z,24.50
2018-08-20T15:15:44.208Z,24.40
2018-08-20T15:18:12.343Z,24.50
2018-08-20T15:20:40.718Z,24.30
2018-08-20T15:23:09.022Z,24.20
2018-08-20T15:25:37.434Z,24.10
2018-08-20T15:28:05.787Z,24.20
2018-08-20T15:30:34.087Z,24.50
2018-08-20T15:33:02.468Z,24.50
2018-08-20T15:35:30.830Z,24.30
2018-08-20T15:37:59.166Z,24.20
2018-08-20T15:40:27.493Z,24.20
2018-08-20T15:42:55.798Z,24.20
2018-08-20T15:45:24.022Z,24.20
2018-08-20T15:47:52.391Z,24.30
2018-08-20T15:50:20.643Z,24.20
2018-08-20T15:52:50.037Z,24.10
2018-08-20T15:55:18.332Z,24.10
2018-08-20T15:57:46.651Z,23.90
2018-08-20T16:00:15.484Z,23.80
2018-08-20T16:02:44.407Z,23.80
2018-08-20T16:05:12.739Z,23.70
2018-08-20T16:07:41.041Z,23.70
2018-08-20T16:10:10.637Z,23.60
2018-08-20T16:12:39.227Z,23.60
2018-08-20T16:15:08.577Z,23.50
2018-08-20T16:17:37.322Z,23.40
2018-08-20T16:20:05.820Z,23.20
2018-08-20T16:22:34.088Z,23.20
2018-08-20T16:25:02.372Z,23.20
2018-08-20T16:27:30.932Z,23.20
2018-08-20T16:29:59.191Z,23.30
2018-08-20T16:32:27.518Z,23.30
2018-08-20T16:34:55.802Z,23.40
2018-08-20T16:37:24.152Z,23.30
2018-08-20T16:39:52.486Z,23.30
2018-08-20T16:42:20.822Z,23.30
2018-08-20T16:44:49.101Z,23.30
2018-08-20T16:48:46.640Z,23.30
2018-08-20T16:51:14.939Z,23.20
2018-08-20T16:53:43.252Z,23.20
2018-08-20T16:56:11.606Z,23.20
2018-08-20T16:58:39.957Z,23.30
2018-08-20T17:01:13.162Z,23.30
2018-08-20T17:03:41.592Z,23.30
2018-08-20T17:06:09.900Z,23.20
2018-08-20T17:08:39.036Z,23.10
2018-08-20T17:11:07.293Z,23.10
2018-08-20T17:13:35.683Z,23.10
2018-08-20T17:16:03.945Z,23.00
2018-08-20T17:18:32.251Z,23.00
2018-08-20T17:21:00.550Z,22.90
2018-08-20T17:23:28.925Z,22.90
2018-08-20T17:25:57.874Z,22.80
2018-08-20T17:28:27.280Z,22.80
2018-08-20T17:30:57.948Z,22.80
2018-08-20T17:33:29.288Z,22.80
2018-08-20T17:35:57.551Z,22.80
2018-08-20T17:38:25.894Z,22.70
2018-08-20T17:40:54.239Z,22.70
2018-08-20T17:43:22.623Z,22.70
2018-08-20T17:45:51.094Z,22.60
2018-08-20T17:48:25.872Z,22.60
2018-08-20T17:50:54.256Z,22.60
2018-08-20T17:53:22.655Z,22.50
2018-08-20T17:55:50.976Z,22.50
2018-08-20T17:58:19.341Z,22.50
2018-08-20T18:00:52.721Z,22.40
2018-08-20T18:03:26.259Z,22.30
2018-08-20T18:05:58.711Z,22.40
2018-08-20T18:08:28.190Z,22.30
2018-08-20T18:10:56.831Z,22.30
2018-08-20T18:13:56.151Z,22.20
2018-08-20T18:16:24.559Z,22.20
2018-08-20T18:18:53.566Z,22.20
2018-08-20T18:21:21.830Z,22.20
2018-08-20T18:23:50.132Z,22.20
2018-08-20T18:26:18.417Z,22.20
2018-08-20T18:28:51.633Z,22.20
2018-08-20T18:31:22.643Z,22.10
2018-08-20T18:35:22.327Z,22.10
2018-08-20T18:37:51.969Z,22.00
2018-08-20T18:40:20.620Z,22.00
2018-08-20T18:42:49.096Z,22.00
2018-08-20T18:45:17.677Z,21.90
2018-08-20T18:47:46.026Z,21.90
2018-08-20T18:50:14.397Z,22.00
2018-08-20T18:52:42.940Z,22.00
2018-08-20T18:55:11.310Z,22.00
2018-08-20T18:57:39.620Z,21.90
2018-08-20T19:00:11.920Z,21.90
2018-08-20T19:02:42.739Z,21.90
2018-08-20T19:05:12.651Z,22.00
2018-08-20T19:07:41.356Z,22.00
2018-08-20T19:10:17.335Z,22.00
2018-08-20T19:12:46.215Z,21.90
2018-08-20T19:15:42.030Z,22.00
2018-08-20T19:18:12.427Z,22.00
2018-08-20T19:20:41.830Z,21.90
2018-08-20T19:23:10.172Z,21.90
2018-08-20T19:25:38.734Z,21.90
2018-08-20T19:28:24.488Z,21.90
2018-08-20T19:30:54.689Z,21.90
2018-08-20T19:33:22.987Z,21.90
2018-08-20T19:35:51.699Z,21.90
2018-08-20T19:38:20.089Z,21.90
2018-08-20T19:40:57.970Z,21.90
2018-08-20T19:43:27.519Z,21.90
2018-08-20T19:45:55.921Z,21.90
2018-08-20T19:48:24.213Z,21.90
2018-08-20T19:50:52.583Z,21.90
2018-08-20T19:53:24.327Z,21.90
2018-08-20T19:55:53.340Z,21.80
2018-08-20T19:58:31.017Z,21.80
2018-08-20T20:01:10.150Z,21.80
2018-08-20T20:03:41.427Z,21.80
2018-08-20T20:06:09.682Z,21.80
2018-08-20T20:08:38.016Z,21.80
2018-08-20T20:11:14.146Z,21.70
2018-08-20T20:13:42.659Z,21.60
2018-08-20T20:16:11.918Z,21.60
2018-08-20T20:18:40.199Z,21.60
2018-08-20T20:21:08.476Z,21.70
2018-08-20T20:23:36.713Z,21.70
2018-08-20T20:26:05.052Z,21.60
2018-08-20T20:28:33.390Z,21.60
2018-08-20T20:31:01.810Z,21.60
2018-08-20T20:33:30.509Z,21.50
2018-08-20T20:35:58.900Z,21.50
2018-08-20T20:38:27.364Z,21.40
2018-08-20T20:40:55.668Z,21.40
2018-08-20T20:43:28.261Z,21.40
2018-08-20T20:45:56.848Z,21.40
2018-08-20T20:48:25.122Z,21.40
2018-08-20T20:50:53.420Z,21.30
2018-08-20T20:53:21.749Z,21.20
2018-08-20T20:55:50.144Z,21.10
2018-08-20T20:58:23.679Z,21.00
2018-08-20T21:00:51.983Z,20.90
2018-08-20T21:03:20.410Z,20.80
2018-08-20T21:05:48.810Z,20.80
2018-08-20T21:08:17.099Z,20.70
2018-08-20T21:10:49.888Z,20.60
2018-08-20T21:13:19.017Z,20.50
2018-08-20T21:15:54.684Z,20.60
2018-08-20T21:18:23.050Z,20.60
2018-08-20T21:20:53.666Z,20.60
2018-08-20T21:23:22.027Z,20.70
2018-08-20T21:25:50.367Z,20.70
2018-08-20T21:28:18.690Z,20.70
2018-08-20T21:30:47.041Z,20.70
2018-08-20T21:33:15.840Z,20.80
2018-08-20T21:35:44.199Z,20.80
2018-08-20T21:38:12.550Z,20.90
2018-08-20T21:40:40.906Z,20.90
2018-08-20T21:43:09.256Z,20.90
2018-08-20T21:45:37.551Z,20.80
2018-08-20T21:48:05.843Z,20.80
2018-08-20T21:50:34.198Z,20.80
2018-08-20T21:53:02.483Z,20.80
2018-08-20T21:55:30.755Z,20.80
2018-08-20T21:59:12.966Z,20.80
2018-08-20T22:01:41.485Z,20.70
2018-08-20T22:04:15.232Z,20.70
2018-08-20T22:06:43.564Z,20.70
2018-08-20T22:09:11.930Z,20.60
2018-08-20T22:11:40.374Z,20.60
2018-08-20T22:14:08.687Z,20.60
2018-08-20T22:16:36.966Z,20.50
2018-08-20T22:19:05.648Z,20.50
2018-08-20T22:21:34.035Z,20.50
2018-08-20T22:24:03.407Z,20.50
2018-08-20T22:26:31.747Z,20.50
2018-08-20T22:29:00.144Z,20.50
2018-08-20T22:31:28.529Z,20.40
2018-08-20T22:34:02.218Z,20.40
2018-08-20T22:36:32.828Z,20.40
2018-08-20T22:39:02.475Z,20.40
2018-08-20T22:41:31.807Z,20.30
2018-08-20T22:44:00.141Z,20.30
2018-08-20T22:46:28.472Z,20.30
2018-08-20T22:48:58.244Z,20.30
2018-08-20T22:51:27.869Z,20.20
2018-08-20T22:53:58.404Z,20.20
2018-08-20T22:56:31.292Z,20.20
2018-08-20T22:59:03.102Z,20.20
2018-08-20T23:01:31.478Z,20.10
2018-08-20T23:03:59.806Z,20.10
2018-08-20T23:06:28.104Z,20.10
2018-08-20T23:08:56.367Z,20.00
2018-08-20T23:11:37.917Z,19.90
2018-08-20T23:14:07.371Z,19.80
2018-08-20T23:16:35.967Z,19.70
2018-08-20T23:26:09.181Z,19.50
2018-08-20T23:28:39.174Z,19.30
2018-08-20T23:31:08.595Z,19.20
2018-08-20T23:33:38.369Z,19.00
2018-08-20T23:36:06.963Z,19.00
2018-08-20T23:38:35.269Z,19.00
2018-08-20T23:41:03.532Z,18.90
2018-08-20T23:43:31.797Z,18.90
2018-08-20T23:46:00.138Z,18.90
2018-08-20T23:48:28.497Z,18.90
2018-08-20T23:51:00.420Z,19.00
2018-08-20T23:53:29.146Z,19.00
2018-08-20T23:55:57.407Z,19.00
2018-08-20T23:58:25.670Z,19.00
